createdAt,value
2023-01-13T00:00:55.076Z,5.26
2023-01-13T00:02:26.629Z,5.24
2023-01-13T00:03:58.268Z,5.23
2023-01-13T00:05:29.791Z,5.21
2023-01-13T00:07:01.246Z,5.22
2023-01-13T00:08:32.779Z,5.25
2023-01-13T00:10:04.692Z,5.23
2023-01-13T00:11:36.147Z,5.21
2023-01-13T00:13:08.263Z,5.21
2023-01-13T00:14:39.702Z,5.24
2023-01-13T00:16:12.248Z,5.22
2023-01-13T00:17:44.039Z,5.23
2023-01-13T00:19:15.594Z,5.21
2023-01-13T00:20:47.075Z,5.22
2023-01-13T00:22:18.627Z,5.26
2023-01-13T00:23:50.457Z,5.22
2023-01-13T00:25:21.955Z,5.19
2023-01-13T00:26:53.426Z,5.16
2023-01-13T00:28:25.042Z,5.16
2023-01-13T00:29:56.501Z,5.17
2023-01-13T00:31:28.374Z,5.18
2023-01-13T00:32:59.866Z,5.17
2023-01-13T00:34:31.363Z,5.17
2023-01-13T00:36:03.030Z,5.15
2023-01-13T00:37:38.113Z,5.15
2023-01-13T00:39:09.743Z,5.15
2023-01-13T00:40:41.247Z,5.15
2023-01-13T00:42:31.800Z,5.11
2023-01-13T00:44:03.331Z,5.07
2023-01-13T00:45:34.854Z,5.13
2023-01-13T00:47:06.396Z,5.16
2023-01-13T00:48:38.139Z,5.17
2023-01-13T00:50:10.134Z,5.22
2023-01-13T00:51:41.568Z,5.21
2023-01-13T00:53:14.022Z,5.15
2023-01-13T00:54:45.564Z,5.11
2023-01-13T00:56:22.143Z,5.10
2023-01-13T00:58:05.788Z,5.09
2023-01-13T00:59:42.485Z,5.09
2023-01-13T01:01:34.859Z,5.10
2023-01-13T01:03:25.948Z,5.09
2023-01-13T01:05:00.175Z,5.11
2023-01-13T01:06:31.720Z,5.12
2023-01-13T01:08:03.288Z,5.12
2023-01-13T01:09:34.778Z,5.15
2023-01-13T01:11:07.800Z,5.13
2023-01-13T01:12:42.118Z,5.11
2023-01-13T01:14:20.186Z,5.10
2023-01-13T01:16:03.026Z,5.09
2023-01-13T01:18:09.756Z,5.08
2023-01-13T01:19:42.392Z,5.09
2023-01-13T01:21:14.150Z,5.13
2023-01-13T01:22:45.660Z,5.18
2023-01-13T01:24:17.221Z,5.22
2023-01-13T01:25:48.723Z,5.21
2023-01-13T01:27:20.310Z,5.19
2023-01-13T01:28:53.517Z,5.17
2023-01-13T01:32:16.561Z,5.17
2023-01-13T01:33:51.858Z,5.17
2023-01-13T01:35:26.010Z,5.17
2023-01-13T01:37:01.335Z,5.14
2023-01-13T01:38:54.773Z,5.12
2023-01-13T01:40:36.450Z,5.09
2023-01-13T01:42:48.567Z,5.10
2023-01-13T01:44:46.762Z,5.10
2023-01-13T01:48:13.367Z,5.09
2023-01-13T01:49:44.958Z,5.11
2023-01-13T01:51:16.520Z,5.13
2023-01-13T01:52:49.584Z,5.15
2023-01-13T01:54:26.046Z,5.19
2023-01-13T01:56:10.166Z,5.18
2023-01-13T01:57:59.006Z,5.17
2023-01-13T01:59:37.171Z,5.15
2023-01-13T02:01:16.621Z,5.15
2023-01-13T02:02:49.246Z,5.18
2023-01-13T02:04:28.481Z,5.18
2023-01-13T02:06:18.573Z,5.13
2023-01-13T02:07:58.181Z,5.06
2023-01-13T02:09:34.780Z,4.98
2023-01-13T02:13:22.981Z,4.98
2023-01-13T02:14:54.442Z,4.96
2023-01-13T02:16:25.884Z,4.97
2023-01-13T02:18:06.232Z,5.02
2023-01-13T02:19:56.858Z,5.05
2023-01-13T02:21:40.314Z,5.11
2023-01-13T02:23:49.313Z,5.15
2023-01-13T02:25:38.987Z,5.17
2023-01-13T02:27:17.036Z,5.19
2023-01-13T02:29:18.647Z,5.18
2023-01-13T02:31:10.667Z,5.17
2023-01-13T02:33:00.475Z,5.12
2023-01-13T02:34:42.637Z,5.14
2023-01-13T02:36:17.896Z,5.14
2023-01-13T02:37:49.338Z,5.14
2023-01-13T02:39:26.994Z,5.16
2023-01-13T02:41:21.053Z,5.14
2023-01-13T02:43:10.840Z,5.13
2023-01-13T02:44:43.755Z,5.11
2023-01-13T02:46:20.777Z,5.12
2023-01-13T02:47:55.875Z,5.11
2023-01-13T02:49:29.941Z,5.11
2023-01-13T02:51:05.101Z,5.12
2023-01-13T02:52:52.635Z,5.10
2023-01-13T02:54:24.643Z,5.09
2023-01-13T02:55:56.349Z,5.10
2023-01-13T02:57:27.834Z,5.09
2023-01-13T02:58:59.381Z,5.06
2023-01-13T03:00:30.985Z,5.09
2023-01-13T03:02:03.558Z,5.11
2023-01-13T03:03:36.676Z,5.11
2023-01-13T03:05:08.234Z,5.15
2023-01-13T03:06:39.726Z,5.18
2023-01-13T03:08:39.747Z,5.20
2023-01-13T03:10:15.975Z,5.20
2023-01-13T03:12:07.308Z,5.22
2023-01-13T03:13:39.339Z,5.19
2023-01-13T03:15:29.554Z,5.23
2023-01-13T03:17:04.179Z,5.20
2023-01-13T03:18:45.010Z,5.17
2023-01-13T03:20:18.655Z,5.17
2023-01-13T03:22:08.135Z,5.20
2023-01-13T03:23:53.482Z,5.24
2023-01-13T03:25:26.263Z,5.24
2023-01-13T03:27:16.949Z,5.23
2023-01-13T03:29:07.109Z,5.22
2023-01-13T03:30:43.058Z,5.22
2023-01-13T03:32:23.206Z,5.23
2023-01-13T03:33:55.744Z,5.23
2023-01-13T03:35:31.363Z,5.25
2023-01-13T03:37:04.000Z,5.29
2023-01-13T03:38:42.898Z,5.28
2023-01-13T03:40:15.604Z,5.28
2023-01-13T03:41:53.180Z,5.27
2023-01-13T03:43:44.970Z,5.30
2023-01-13T03:45:17.094Z,5.33
2023-01-13T03:46:58.594Z,5.28
2023-01-13T03:48:30.200Z,5.29
2023-01-13T03:50:07.096Z,5.23
2023-01-13T03:51:39.133Z,5.25
2023-01-13T03:53:11.646Z,5.25
2023-01-13T03:54:45.210Z,5.22
2023-01-13T03:56:18.127Z,5.20
2023-01-13T03:57:53.407Z,5.19
2023-01-13T03:59:27.113Z,5.22
2023-01-13T04:01:03.533Z,5.14
2023-01-13T04:02:44.515Z,5.09
2023-01-13T04:04:20.334Z,5.04
2023-01-13T04:05:52.672Z,5.03
2023-01-13T04:07:42.668Z,5.05
2023-01-13T04:09:17.429Z,5.02
2023-01-13T04:10:53.520Z,5.00
2023-01-13T04:12:27.496Z,4.99
2023-01-13T04:13:59.497Z,4.93
2023-01-13T04:15:35.197Z,4.92
2023-01-13T04:17:06.927Z,4.93
2023-01-13T04:18:38.816Z,4.95
2023-01-13T04:20:10.631Z,4.96
2023-01-13T04:21:42.419Z,4.98
2023-01-13T04:23:13.982Z,5.02
2023-01-13T04:24:45.625Z,5.06
2023-01-13T04:26:17.712Z,5.12
2023-01-13T04:27:49.323Z,5.10
2023-01-13T04:29:20.905Z,5.06
2023-01-13T04:30:52.623Z,5.06
2023-01-13T04:32:24.203Z,5.11
2023-01-13T04:33:55.986Z,5.14
2023-01-13T04:35:27.688Z,5.13
2023-01-13T04:36:59.251Z,5.15
2023-01-13T04:38:30.853Z,5.16
2023-01-13T04:40:02.415Z,5.19
2023-01-13T04:41:53.935Z,5.20
2023-01-13T04:43:25.479Z,5.23
2023-01-13T04:44:57.081Z,5.21
2023-01-13T04:46:28.758Z,5.15
2023-01-13T04:48:00.312Z,5.14
2023-01-13T04:49:31.837Z,5.11
2023-01-13T04:51:03.389Z,5.05
2023-01-13T04:52:34.885Z,5.05
2023-01-13T04:54:06.428Z,5.05
2023-01-13T04:55:38.043Z,5.05
2023-01-13T04:57:09.960Z,5.07
2023-01-13T04:58:42.023Z,5.10
2023-01-13T05:00:14.470Z,5.10
2023-01-13T05:01:46.099Z,5.12
2023-01-13T05:03:18.707Z,5.11
2023-01-13T05:04:50.280Z,5.17
2023-01-13T05:06:21.831Z,5.18
2023-01-13T05:07:53.340Z,5.19
2023-01-13T05:09:24.985Z,5.17
2023-01-13T05:10:59.753Z,5.14
2023-01-13T05:12:50.007Z,5.13
2023-01-13T05:14:40.274Z,5.10
2023-01-13T05:16:30.450Z,5.09
2023-01-13T05:18:02.062Z,5.05
2023-01-13T05:19:34.360Z,5.04
2023-01-13T05:21:25.877Z,5.03
2023-01-13T05:23:16.209Z,5.00
2023-01-13T05:25:06.455Z,4.99
2023-01-13T05:26:37.956Z,4.99
2023-01-13T05:28:09.631Z,5.02
2023-01-13T05:29:41.227Z,5.02
2023-01-13T05:31:14.948Z,5.06
2023-01-13T05:32:46.760Z,5.04
2023-01-13T05:34:18.347Z,5.03
2023-01-13T05:35:50.048Z,5.05
2023-01-13T05:37:21.918Z,5.08
2023-01-13T05:38:53.416Z,5.09
2023-01-13T05:40:43.367Z,5.11
2023-01-13T05:42:33.577Z,5.08
2023-01-13T05:44:05.118Z,5.10
2023-01-13T05:45:36.740Z,5.08
2023-01-13T05:47:08.192Z,5.05
2023-01-13T05:48:40.567Z,5.04
2023-01-13T05:50:13.316Z,5.04
2023-01-13T05:51:44.877Z,5.03
2023-01-13T05:53:17.510Z,5.04
2023-01-13T05:54:49.144Z,5.02
2023-01-13T05:56:20.679Z,5.01
2023-01-13T05:57:52.221Z,5.02
2023-01-13T05:59:23.671Z,5.03
2023-01-13T06:00:59.400Z,5.10
2023-01-13T06:02:30.912Z,5.11
2023-01-13T06:04:02.782Z,5.10
2023-01-13T06:05:34.569Z,5.07
2023-01-13T06:07:06.333Z,5.07
2023-01-13T06:08:39.716Z,5.09
2023-01-13T06:10:11.619Z,5.10
2023-01-13T06:11:43.299Z,5.10
2023-01-13T06:13:14.853Z,5.09
2023-01-13T06:14:46.549Z,5.09
2023-01-13T06:16:18.396Z,5.08
2023-01-13T06:17:50.116Z,5.07
2023-01-13T06:19:21.852Z,5.07
2023-01-13T06:20:53.480Z,5.09
2023-01-13T06:22:26.457Z,5.09
2023-01-13T06:23:58.161Z,5.08
2023-01-13T06:25:32.720Z,5.10
2023-01-13T06:27:05.080Z,5.12
2023-01-13T06:28:36.666Z,5.17
2023-01-13T06:30:08.695Z,5.14
2023-01-13T06:31:41.136Z,5.15
2023-01-13T06:33:14.152Z,5.15
2023-01-13T06:34:46.606Z,5.14
2023-01-13T06:36:56.144Z,5.14
2023-01-13T06:38:27.932Z,5.21
2023-01-13T06:40:00.222Z,5.29
2023-01-13T06:41:51.314Z,5.32
2023-01-13T06:43:22.851Z,5.31
2023-01-13T06:44:54.912Z,5.30
2023-01-13T06:46:26.466Z,5.32
2023-01-13T06:47:59.416Z,5.34
2023-01-13T06:49:31.032Z,5.37
2023-01-13T06:51:03.392Z,5.44
2023-01-13T06:52:35.043Z,5.50
2023-01-13T06:54:06.689Z,5.50
2023-01-13T06:55:38.845Z,5.43
2023-01-13T06:57:10.359Z,5.42
2023-01-13T06:58:41.990Z,5.42
2023-01-13T07:00:13.832Z,5.48
2023-01-13T07:01:45.540Z,5.51
2023-01-13T07:03:17.269Z,5.53
2023-01-13T07:04:49.049Z,5.47
2023-01-13T07:06:20.573Z,5.48
2023-01-13T07:07:52.138Z,5.49
2023-01-13T07:09:24.043Z,5.51
2023-01-13T07:10:55.699Z,5.48
2023-01-13T07:12:27.151Z,5.45
2023-01-13T07:14:17.184Z,5.42
2023-01-13T07:15:57.964Z,5.38
2023-01-13T07:17:29.500Z,5.39
2023-01-13T07:19:01.149Z,5.39
2023-01-13T07:20:32.809Z,5.43
2023-01-13T07:22:04.453Z,5.43
2023-01-13T07:23:39.945Z,5.43
2023-01-13T07:25:11.980Z,5.38
2023-01-13T07:26:43.959Z,5.40
2023-01-13T07:28:15.864Z,5.41
2023-01-13T07:29:48.140Z,5.44
2023-01-13T07:31:21.425Z,5.52
2023-01-13T07:32:53.721Z,5.58
2023-01-13T07:34:32.169Z,5.59
2023-01-13T07:36:15.388Z,5.63
2023-01-13T07:37:47.487Z,5.66
2023-01-13T07:39:19.807Z,5.65
2023-01-13T07:40:51.838Z,5.63
2023-01-13T07:42:42.195Z,5.70
2023-01-13T07:44:14.234Z,5.82
2023-01-13T07:45:46.169Z,5.88
2023-01-13T07:47:22.748Z,5.94
2023-01-13T07:48:54.615Z,6.00
2023-01-13T07:50:36.281Z,6.05
2023-01-13T07:52:08.261Z,6.12
2023-01-13T07:53:40.726Z,6.21
2023-01-13T07:55:12.799Z,6.29
2023-01-13T07:56:44.748Z,6.36
2023-01-13T07:58:17.126Z,6.42
2023-01-13T07:59:49.218Z,6.46
2023-01-13T08:01:21.718Z,6.47
2023-01-13T08:02:54.375Z,6.50
2023-01-13T08:04:26.013Z,6.58
2023-01-13T08:05:57.647Z,6.64
2023-01-13T08:07:29.457Z,6.67
2023-01-13T08:09:01.033Z,6.69
2023-01-13T08:10:32.617Z,6.72
2023-01-13T08:12:22.749Z,6.75
2023-01-13T08:13:58.483Z,6.80
2023-01-13T08:15:34.013Z,6.85
2023-01-13T08:17:06.086Z,6.85
2023-01-13T08:18:38.347Z,6.83
2023-01-13T08:20:10.949Z,6.83
2023-01-13T08:21:43.192Z,6.87
2023-01-13T08:23:15.896Z,6.84
2023-01-13T08:24:49.957Z,6.87
2023-01-13T08:26:25.362Z,6.88
2023-01-13T08:27:57.697Z,6.93
2023-01-13T08:29:29.462Z,6.99
2023-01-13T08:31:02.200Z,7.01
2023-01-13T08:32:34.716Z,6.97
2023-01-13T08:34:07.456Z,6.94
2023-01-13T08:35:42.658Z,6.92
2023-01-13T08:37:14.786Z,6.89
2023-01-13T08:38:46.647Z,6.90
2023-01-13T08:40:19.939Z,6.88
2023-01-13T08:41:58.901Z,6.88
2023-01-13T08:43:32.809Z,6.91
2023-01-13T08:45:06.865Z,6.92
2023-01-13T08:46:39.310Z,6.90
2023-01-13T08:48:13.791Z,6.86
2023-01-13T08:49:46.110Z,6.87
2023-01-13T08:51:18.397Z,6.90
2023-01-13T08:52:50.575Z,6.94
2023-01-13T08:54:25.156Z,6.92
2023-01-13T08:55:56.867Z,6.93
2023-01-13T08:57:29.246Z,6.91
2023-01-13T08:59:01.612Z,6.89
2023-01-13T09:00:34.003Z,6.89
2023-01-13T09:02:17.798Z,6.86
2023-01-13T09:03:53.557Z,6.84
2023-01-13T09:05:28.771Z,6.84
2023-01-13T09:07:03.113Z,6.87
2023-01-13T09:08:35.259Z,6.88
2023-01-13T09:10:07.863Z,6.89
2023-01-13T09:12:00.314Z,6.87
2023-01-13T09:13:32.594Z,6.91
2023-01-13T09:15:06.939Z,6.95
2023-01-13T09:16:39.072Z,6.98
2023-01-13T09:18:15.720Z,7.01
2023-01-13T09:19:47.581Z,7.02
2023-01-13T09:21:21.803Z,7.05
2023-01-13T09:22:56.819Z,7.08
2023-01-13T09:24:28.903Z,7.08
2023-01-13T09:26:10.059Z,7.12
2023-01-13T09:27:41.872Z,7.17
2023-01-13T09:29:14.489Z,7.21
2023-01-13T09:30:46.709Z,7.26
2023-01-13T09:32:18.894Z,7.31
2023-01-13T09:34:09.109Z,7.33
2023-01-13T09:35:41.219Z,7.30
2023-01-13T09:37:15.316Z,7.28
2023-01-13T09:38:46.907Z,7.30
2023-01-13T09:40:19.561Z,7.34
2023-01-13T09:42:11.494Z,7.38
2023-01-13T09:43:58.945Z,7.45
2023-01-13T09:45:42.829Z,7.51
2023-01-13T09:47:28.371Z,7.57
2023-01-13T09:49:00.039Z,7.59
2023-01-13T09:50:50.107Z,7.60
2023-01-13T09:52:26.922Z,7.60
2023-01-13T09:54:17.025Z,7.55
2023-01-13T09:55:48.634Z,7.51
2023-01-13T09:57:20.675Z,7.51
2023-01-13T09:58:53.304Z,7.55
2023-01-13T10:00:26.268Z,7.54
2023-01-13T10:02:05.961Z,7.58
2023-01-13T10:03:38.784Z,7.58
2023-01-13T10:05:22.262Z,7.59
2023-01-13T10:07:01.842Z,7.61
2023-01-13T10:08:40.030Z,7.63
2023-01-13T10:10:17.254Z,7.68
2023-01-13T10:13:56.554Z,7.59
2023-01-13T10:15:28.684Z,7.52
2023-01-13T10:17:24.063Z,7.48
2023-01-13T10:18:56.118Z,7.46
2023-01-13T10:20:30.846Z,7.47
2023-01-13T10:22:24.196Z,7.55
2023-01-13T10:23:57.729Z,7.65
2023-01-13T10:25:48.168Z,7.75
2023-01-13T10:27:30.765Z,7.81
2023-01-13T10:29:02.631Z,7.83
2023-01-13T10:30:36.242Z,7.80
2023-01-13T10:32:12.974Z,7.80
2023-01-13T10:33:47.961Z,7.91
2023-01-13T10:35:40.010Z,7.93
2023-01-13T10:37:25.012Z,7.95
2023-01-13T10:39:21.079Z,7.95
2023-01-13T10:40:54.007Z,7.91
2023-01-13T10:42:28.439Z,7.91
2023-01-13T10:44:01.863Z,7.91
2023-01-13T10:45:38.334Z,7.97
2023-01-13T10:47:16.816Z,8.01
2023-01-13T10:48:56.312Z,8.09
2023-01-13T10:50:29.090Z,8.10
2023-01-13T10:52:05.682Z,8.08
2023-01-13T10:53:45.400Z,8.07
2023-01-13T10:55:44.357Z,8.03
2023-01-13T10:57:20.021Z,8.04
2023-01-13T10:58:53.210Z,8.08
2023-01-13T11:00:29.656Z,8.07
2023-01-13T11:02:33.962Z,8.06
2023-01-13T11:04:16.946Z,8.07
2023-01-13T11:05:52.010Z,8.11
2023-01-13T11:07:38.892Z,8.14
2023-01-13T11:09:11.399Z,8.19
2023-01-13T11:11:04.284Z,8.19
2023-01-13T11:12:58.839Z,8.24
2023-01-13T11:14:43.974Z,8.26
2023-01-13T11:16:22.880Z,8.27
2023-01-13T11:18:05.267Z,8.32
2023-01-13T11:19:38.567Z,8.35
2023-01-13T11:21:19.406Z,8.39
2023-01-13T11:22:53.695Z,8.40
2023-01-13T11:24:45.351Z,8.42
2023-01-13T11:26:19.411Z,8.48
2023-01-13T11:28:05.176Z,8.46
2023-01-13T11:30:01.155Z,8.38
2023-01-13T11:31:33.798Z,8.39
2023-01-13T11:33:14.805Z,8.41
2023-01-13T11:34:48.734Z,8.43
2023-01-13T11:36:28.418Z,8.42
2023-01-13T11:38:02.474Z,8.45
2023-01-13T11:39:54.243Z,8.44
2023-01-13T11:41:30.793Z,8.45
2023-01-13T11:43:10.922Z,8.43
2023-01-13T11:44:46.169Z,8.43
2023-01-13T11:46:21.102Z,8.43
2023-01-13T11:47:55.217Z,8.43
2023-01-13T11:49:28.246Z,8.41
2023-01-13T11:51:15.347Z,8.43
2023-01-13T11:52:56.619Z,8.43
2023-01-13T11:54:38.642Z,8.42
2023-01-13T11:56:28.673Z,8.47
2023-01-13T11:58:03.562Z,8.47
2023-01-13T11:59:44.042Z,8.48
2023-01-13T12:01:28.864Z,8.43
2023-01-13T12:03:03.904Z,8.40
2023-01-13T12:04:40.585Z,8.38
2023-01-13T12:06:12.672Z,8.38
2023-01-13T12:08:03.471Z,8.40
2023-01-13T12:09:41.553Z,8.36
2023-01-13T12:11:34.543Z,8.36
2023-01-13T12:13:11.575Z,8.41
2023-01-13T12:14:46.809Z,8.42
2023-01-13T12:16:24.718Z,8.43
2023-01-13T12:18:04.956Z,8.44
2023-01-13T12:19:37.155Z,8.46
2023-01-13T12:21:20.297Z,8.48
2023-01-13T12:22:53.423Z,8.54
2023-01-13T12:24:31.986Z,8.58
2023-01-13T12:26:10.615Z,8.61
2023-01-13T12:27:47.614Z,8.64
2023-01-13T12:29:47.834Z,8.62
2023-01-13T12:33:32.837Z,8.57
2023-01-13T12:35:26.556Z,8.55
2023-01-13T12:37:10.198Z,8.55
2023-01-13T12:39:11.991Z,8.53
2023-01-13T12:41:07.555Z,8.47
2023-01-13T12:43:04.173Z,8.44
2023-01-13T12:44:36.470Z,8.44
2023-01-13T12:46:21.693Z,8.46
2023-01-13T12:47:53.765Z,8.50
2023-01-13T12:49:25.439Z,8.51
2023-01-13T12:51:03.370Z,8.47
2023-01-13T12:52:45.327Z,8.51
2023-01-13T12:54:35.785Z,8.55
2023-01-13T12:56:29.093Z,8.52
2023-01-13T12:58:07.548Z,8.46
2023-01-13T12:59:39.687Z,8.45
2023-01-13T13:01:12.162Z,8.47
2023-01-13T13:03:01.561Z,8.47
2023-01-13T13:04:48.319Z,8.46
2023-01-13T13:06:20.896Z,8.45
2023-01-13T13:07:53.697Z,8.46
2023-01-13T13:09:25.929Z,8.45
2023-01-13T13:11:03.359Z,8.44
2023-01-13T13:13:10.044Z,8.34
2023-01-13T13:14:42.368Z,8.31
2023-01-13T13:16:40.285Z,8.36
2023-01-13T13:18:19.103Z,8.41
2023-01-13T13:19:51.330Z,8.42
2023-01-13T13:21:23.007Z,8.46
2023-01-13T13:22:55.266Z,8.47
2023-01-13T13:24:26.898Z,8.52
2023-01-13T13:26:17.076Z,8.54
2023-01-13T13:28:07.359Z,8.47
2023-01-13T13:29:48.267Z,8.47
2023-01-13T13:31:20.434Z,8.46
2023-01-13T13:32:57.056Z,8.47
2023-01-13T13:34:46.993Z,8.48
2023-01-13T13:36:29.319Z,8.51
2023-01-13T13:38:27.888Z,8.49
2023-01-13T13:40:21.590Z,8.49
2023-01-13T13:42:17.786Z,8.45
2023-01-13T13:44:08.185Z,8.42
2023-01-13T13:46:12.699Z,8.30
2023-01-13T13:47:44.961Z,8.28
2023-01-13T13:49:18.159Z,8.28
2023-01-13T13:50:57.259Z,8.28
2023-01-13T13:52:43.008Z,8.25
2023-01-13T13:54:16.799Z,8.21
2023-01-13T13:55:55.632Z,8.16
2023-01-13T13:57:31.372Z,8.12
2023-01-13T13:59:04.193Z,8.07
2023-01-13T14:00:36.463Z,8.08
2023-01-13T14:02:13.402Z,8.09
2023-01-13T14:03:49.211Z,8.07
2023-01-13T14:05:23.033Z,8.04
2023-01-13T14:07:01.332Z,7.99
2023-01-13T14:08:37.367Z,7.95
2023-01-13T14:10:16.573Z,7.96
2023-01-13T14:11:55.648Z,8.00
2023-01-13T14:13:31.541Z,8.01
2023-01-13T14:15:03.629Z,8.02
2023-01-13T14:16:36.487Z,8.01
2023-01-13T14:18:15.987Z,8.00
2023-01-13T14:19:58.684Z,7.99
2023-01-13T14:21:31.156Z,7.99
2023-01-13T14:23:06.512Z,7.95
2023-01-13T14:24:45.712Z,7.93
2023-01-13T14:26:18.081Z,7.90
2023-01-13T14:27:53.315Z,7.88
2023-01-13T14:29:26.573Z,7.81
2023-01-13T14:31:01.762Z,7.71
2023-01-13T14:32:35.754Z,7.61
2023-01-13T14:34:31.166Z,7.57
2023-01-13T14:36:33.470Z,7.52
2023-01-13T14:38:16.480Z,7.46
2023-01-13T14:39:48.488Z,7.42
2023-01-13T14:41:25.221Z,7.38
2023-01-13T14:43:00.236Z,7.32
2023-01-13T14:44:39.102Z,7.28
2023-01-13T14:46:11.417Z,7.21
2023-01-13T14:47:49.302Z,7.20
2023-01-13T14:49:32.990Z,7.19
2023-01-13T14:51:11.515Z,7.16
2023-01-13T14:52:50.831Z,7.13
2023-01-13T14:54:41.024Z,7.11
2023-01-13T14:56:33.535Z,7.08
2023-01-13T14:58:37.900Z,7.08
2023-01-13T15:00:16.768Z,7.10
2023-01-13T15:01:48.863Z,7.12
2023-01-13T15:03:23.387Z,7.12
2023-01-13T15:05:01.927Z,7.07
2023-01-13T15:06:40.956Z,7.07
2023-01-13T15:08:14.767Z,7.04
2023-01-13T15:09:46.875Z,7.02
2023-01-13T15:11:24.839Z,7.04
2023-01-13T15:12:58.681Z,7.03
2023-01-13T15:14:32.779Z,7.06
2023-01-13T15:16:06.463Z,7.06
2023-01-13T15:17:39.048Z,7.07
2023-01-13T15:19:11.642Z,7.08
2023-01-13T15:20:44.763Z,7.09
2023-01-13T15:22:17.255Z,7.14
2023-01-13T15:23:51.405Z,7.18
2023-01-13T15:25:23.701Z,7.16
2023-01-13T15:26:56.205Z,7.15
2023-01-13T15:28:28.651Z,7.16
2023-01-13T15:30:00.884Z,7.16
2023-01-13T15:31:33.342Z,7.18
2023-01-13T15:33:05.556Z,7.19
2023-01-13T15:34:37.575Z,7.23
2023-01-13T15:36:20.427Z,7.25
2023-01-13T15:37:52.493Z,7.24
2023-01-13T15:39:24.616Z,7.27
2023-01-13T15:40:56.578Z,7.27
2023-01-13T15:42:49.286Z,7.26
2023-01-13T15:44:39.903Z,7.21
2023-01-13T15:46:31.425Z,7.17
2023-01-13T15:48:03.063Z,7.17
2023-01-13T15:49:36.402Z,7.17
2023-01-13T15:51:08.969Z,7.16
2023-01-13T15:52:40.644Z,7.14
2023-01-13T15:54:12.808Z,7.14
2023-01-13T15:55:44.991Z,7.14
2023-01-13T15:57:21.369Z,7.14
2023-01-13T15:58:53.023Z,7.15
2023-01-13T16:00:25.038Z,7.13
2023-01-13T16:01:56.871Z,7.10
2023-01-13T16:03:28.463Z,7.10
2023-01-13T16:05:00.547Z,7.08
2023-01-13T16:06:36.317Z,7.07
2023-01-13T16:08:25.502Z,7.06
2023-01-13T16:09:57.114Z,7.07
2023-01-13T16:11:28.783Z,7.05
2023-01-13T16:13:01.276Z,7.07
2023-01-13T16:14:32.867Z,7.08
2023-01-13T16:16:04.759Z,7.09
2023-01-13T16:17:36.567Z,7.08
2023-01-13T16:19:09.672Z,7.10
2023-01-13T16:20:41.348Z,7.11
2023-01-13T16:22:14.310Z,7.09
2023-01-13T16:23:46.451Z,7.06
2023-01-13T16:25:19.667Z,7.03
2023-01-13T16:26:51.201Z,7.00
2023-01-13T16:28:24.340Z,7.01
2023-01-13T16:29:55.944Z,6.98
2023-01-13T16:31:30.733Z,6.95
2023-01-13T16:33:02.777Z,6.91
2023-01-13T16:34:34.353Z,6.89
2023-01-13T16:36:11.778Z,6.88
2023-01-13T16:37:47.254Z,6.88
2023-01-13T16:39:22.549Z,6.89
2023-01-13T16:40:54.272Z,6.89
2023-01-13T16:42:25.969Z,6.88
2023-01-13T16:43:58.178Z,6.89
2023-01-13T16:45:30.404Z,6.92
2023-01-13T16:47:02.172Z,6.97
2023-01-13T16:48:33.947Z,7.00
2023-01-13T16:50:06.035Z,7.04
2023-01-13T16:51:37.674Z,7.07
2023-01-13T16:53:12.009Z,7.09
2023-01-13T16:54:43.563Z,7.09
2023-01-13T16:56:17.179Z,7.08
2023-01-13T16:57:48.880Z,7.12
2023-01-13T16:59:21.733Z,7.17
2023-01-13T17:00:53.469Z,7.22
2023-01-13T17:02:25.246Z,7.24
2023-01-13T17:03:57.177Z,7.23
2023-01-13T17:05:28.838Z,7.24
2023-01-13T17:07:01.748Z,7.25
2023-01-13T17:08:33.440Z,7.26
2023-01-13T17:10:05.631Z,7.26
2023-01-13T17:11:37.440Z,7.25
2023-01-13T17:13:15.952Z,7.25
2023-01-13T17:14:48.217Z,7.27
2023-01-13T17:16:21.241Z,7.27
2023-01-13T17:17:55.417Z,7.26
2023-01-13T17:19:27.117Z,7.24
2023-01-13T17:21:00.179Z,7.23
2023-01-13T17:22:31.909Z,7.21
2023-01-13T17:24:05.994Z,7.24
2023-01-13T17:25:37.577Z,7.24
2023-01-13T17:27:09.437Z,7.22
2023-01-13T17:28:41.115Z,7.21
2023-01-13T17:30:14.779Z,7.16
2023-01-13T17:31:46.491Z,7.14
2023-01-13T17:33:18.313Z,7.16
2023-01-13T17:34:50.090Z,7.16
2023-01-13T17:36:24.229Z,7.15
2023-01-13T17:37:56.571Z,7.19
2023-01-13T17:39:28.432Z,7.22
2023-01-13T17:41:04.158Z,7.21
2023-01-13T17:42:37.181Z,7.19
2023-01-13T17:44:09.411Z,7.21
2023-01-13T17:45:41.775Z,7.19
2023-01-13T17:47:14.229Z,7.20
2023-01-13T17:48:50.739Z,7.21
2023-01-13T17:50:22.531Z,7.25
2023-01-13T17:51:54.176Z,7.22
2023-01-13T17:53:25.777Z,7.21
2023-01-13T17:54:57.888Z,7.22
2023-01-13T17:56:29.935Z,7.21
2023-01-13T17:58:02.024Z,7.23
2023-01-13T17:59:33.617Z,7.27
2023-01-13T18:01:09.673Z,7.27
2023-01-13T18:02:41.436Z,7.31
2023-01-13T18:04:16.844Z,7.33
2023-01-13T18:05:48.694Z,7.33
2023-01-13T18:07:20.691Z,7.36
2023-01-13T18:08:52.530Z,7.35
2023-01-13T18:10:24.329Z,7.29
2023-01-13T18:11:56.056Z,7.25
2023-01-13T18:13:28.406Z,7.21
2023-01-13T18:15:00.106Z,7.23
2023-01-13T18:16:31.996Z,7.19
2023-01-13T18:18:03.765Z,7.18
2023-01-13T18:19:53.908Z,7.22
2023-01-13T18:21:44.723Z,7.23
2023-01-13T18:23:35.448Z,7.28
2023-01-13T18:25:28.147Z,7.29
2023-01-13T18:27:18.636Z,7.33
2023-01-13T18:28:50.247Z,7.34
2023-01-13T18:30:22.152Z,7.27
2023-01-13T18:31:53.908Z,7.23
2023-01-13T18:33:25.506Z,7.18
2023-01-13T18:35:06.650Z,7.18
2023-01-13T18:36:38.940Z,7.17
2023-01-13T18:38:13.625Z,7.17
2023-01-13T18:39:45.554Z,7.22
2023-01-13T18:41:35.674Z,7.24
2023-01-13T18:43:07.332Z,7.21
2023-01-13T18:44:39.086Z,7.21
2023-01-13T18:46:10.695Z,7.22
2023-01-13T18:47:42.682Z,7.18
2023-01-13T18:49:14.379Z,7.15
2023-01-13T18:50:46.579Z,7.14
2023-01-13T18:52:18.445Z,7.13
2023-01-13T18:53:50.102Z,7.12
2023-01-13T18:55:21.876Z,7.10
2023-01-13T18:56:53.916Z,7.12
2023-01-13T18:58:25.672Z,7.14
2023-01-13T18:59:57.847Z,7.17
2023-01-13T19:01:30.209Z,7.16
2023-01-13T19:04:37.416Z,7.12
2023-01-13T19:06:11.910Z,7.13
2023-01-13T19:07:50.324Z,7.12
2023-01-13T19:09:24.817Z,7.14
2023-01-13T19:10:57.318Z,7.12
2023-01-13T19:12:31.170Z,7.08
2023-01-13T19:14:03.134Z,7.08
2023-01-13T19:15:36.212Z,7.04
2023-01-13T19:17:11.309Z,7.00
2023-01-13T19:18:43.076Z,7.03
2023-01-13T19:20:14.671Z,7.04
2023-01-13T19:21:46.518Z,7.02
2023-01-13T19:23:18.989Z,7.01
2023-01-13T19:24:50.750Z,6.98
2023-01-13T19:26:22.565Z,6.96
2023-01-13T19:27:54.265Z,6.88
2023-01-13T19:29:25.982Z,6.85
2023-01-13T19:31:04.439Z,6.84
2023-01-13T19:32:36.722Z,6.82
2023-01-13T19:34:08.311Z,6.81
2023-01-13T19:35:40.091Z,6.73
2023-01-13T19:37:12.452Z,6.67
2023-01-13T19:38:44.302Z,6.62
2023-01-13T19:40:16.783Z,6.57
2023-01-13T19:42:07.239Z,6.51
2023-01-13T19:43:57.706Z,6.43
2023-01-13T19:45:34.092Z,6.34
2023-01-13T19:47:06.813Z,6.28
2023-01-13T19:48:38.711Z,6.21
2023-01-13T19:50:10.705Z,6.16
2023-01-13T19:51:42.450Z,6.11
2023-01-13T19:53:17.716Z,6.03
2023-01-13T19:54:49.612Z,5.94
2023-01-13T19:56:21.215Z,5.91
2023-01-13T19:57:52.839Z,5.89
2023-01-13T19:59:29.290Z,5.85
2023-01-13T20:01:07.938Z,5.79
2023-01-13T20:02:44.964Z,5.77
2023-01-13T20:04:19.580Z,5.78
2023-01-13T20:05:51.705Z,5.80
2023-01-13T20:07:24.425Z,5.79
2023-01-13T20:08:56.177Z,5.75
2023-01-13T20:10:30.457Z,5.71
2023-01-13T20:12:15.405Z,5.67
2023-01-13T20:13:47.317Z,5.62
2023-01-13T20:15:19.080Z,5.57
2023-01-13T20:16:50.804Z,5.52
2023-01-13T20:18:22.511Z,5.47
2023-01-13T20:19:54.703Z,5.42
2023-01-13T20:21:26.781Z,5.36
2023-01-13T20:22:59.751Z,5.30
2023-01-13T20:24:31.254Z,5.17
2023-01-13T20:26:02.957Z,5.09
2023-01-13T20:27:35.122Z,5.06
2023-01-13T20:29:07.035Z,5.01
2023-01-13T20:30:39.726Z,4.94
2023-01-13T20:32:11.422Z,4.88
2023-01-13T20:33:43.120Z,4.82
2023-01-13T20:35:14.805Z,4.80
2023-01-13T20:36:46.991Z,4.77
2023-01-13T20:38:19.420Z,4.74
2023-01-13T20:39:51.200Z,4.72
2023-01-13T20:41:41.692Z,4.68
2023-01-13T20:43:13.259Z,4.60
2023-01-13T20:44:46.834Z,4.55
2023-01-13T20:46:18.497Z,4.51
2023-01-13T20:47:50.105Z,4.50
2023-01-13T20:49:21.897Z,4.49
2023-01-13T20:50:54.481Z,4.49
2023-01-13T20:52:26.113Z,4.52
2023-01-13T20:53:57.832Z,4.52
2023-01-13T20:55:29.350Z,4.55
2023-01-13T20:57:00.906Z,4.56
2023-01-13T20:58:32.471Z,4.54
2023-01-13T21:00:04.355Z,4.54
2023-01-13T21:01:36.153Z,4.53
2023-01-13T21:03:07.895Z,4.56
2023-01-13T21:04:39.936Z,4.57
2023-01-13T21:06:11.555Z,4.57
2023-01-13T21:07:43.174Z,4.56
2023-01-13T21:09:14.757Z,4.58
2023-01-13T21:10:46.811Z,4.57
2023-01-13T21:12:38.769Z,4.54
2023-01-13T21:14:37.800Z,4.51
2023-01-13T21:16:09.810Z,4.46
2023-01-13T21:17:59.789Z,4.43
2023-01-13T21:19:31.448Z,4.43
2023-01-13T21:21:12.186Z,4.43
2023-01-13T21:22:47.272Z,4.44
2023-01-13T21:24:18.884Z,4.48
2023-01-13T21:25:50.399Z,4.52
2023-01-13T21:27:22.049Z,4.56
2023-01-13T21:28:56.001Z,4.55
2023-01-13T21:30:27.617Z,4.52
2023-01-13T21:31:59.395Z,4.51
2023-01-13T21:33:31.405Z,4.49